createdAt,value
2019-03-19T00:00:12.473Z,75.80
2019-03-19T00:02:44.857Z,76.10
2019-03-19T00:05:15.677Z,75.70
2019-03-19T00:07:46.509Z,75.50
2019-03-19T00:10:17.449Z,75.20
2019-03-19T00:12:48.468Z,74.80
2019-03-19T00:15:19.616Z,74.80
2019-03-19T00:17:50.450Z,74.70
2019-03-19T00:20:21.291Z,74.90
2019-03-19T00:22:52.136Z,75.10
2019-03-19T00:25:30.007Z,75.00
2019-03-19T00:27:55.433Z,75.00
2019-03-19T00:30:26.252Z,75.00
2019-03-19T00:32:57.215Z,75.30
2019-03-19T00:35:28.036Z,75.30
2019-03-19T00:37:58.896Z,75.30
2019-03-19T00:40:29.719Z,75.40
2019-03-19T00:43:00.536Z,75.70
2019-03-19T00:45:31.395Z,75.50
2019-03-19T00:48:02.256Z,75.20
2019-03-19T00:50:33.053Z,75.40
2019-03-19T00:53:03.902Z,75.40
2019-03-19T00:55:40.703Z,75.70
2019-03-19T00:58:07.219Z,75.90
2019-03-19T01:00:38.485Z,75.80
2019-03-19T01:03:09.633Z,76.10
2019-03-19T01:05:40.553Z,76.30
2019-03-19T01:08:11.377Z,76.80
2019-03-19T01:10:42.198Z,77.30
2019-03-19T01:13:13.152Z,77.50
2019-03-19T01:15:43.973Z,77.60
2019-03-19T01:18:14.786Z,77.70
2019-03-19T01:20:45.603Z,77.50
2019-03-19T01:23:16.414Z,77.50
2019-03-19T01:25:55.120Z,78.10
2019-03-19T01:28:30.796Z,77.80
2019-03-19T01:31:01.626Z,77.70
2019-03-19T01:33:32.525Z,77.60
2019-03-19T01:36:03.363Z,77.50
2019-03-19T01:38:34.201Z,77.20
2019-03-19T01:41:05.124Z,77.20
2019-03-19T01:43:37.316Z,77.70
2019-03-19T01:46:08.128Z,77.00
2019-03-19T01:48:38.956Z,77.10
2019-03-19T01:51:09.993Z,77.20
2019-03-19T01:53:41.229Z,77.20
2019-03-19T01:56:12.364Z,77.30
2019-03-19T01:58:43.634Z,77.10
2019-03-19T02:01:14.784Z,77.10
2019-03-19T02:03:45.922Z,77.20
2019-03-19T02:06:17.096Z,77.20
2019-03-19T02:08:48.311Z,77.20
2019-03-19T02:11:19.524Z,77.20
2019-03-19T02:13:50.369Z,77.00
2019-03-19T02:16:21.528Z,77.40
2019-03-19T02:18:52.365Z,77.70
2019-03-19T02:21:23.197Z,77.90
2019-03-19T02:23:54.033Z,78.10
2019-03-19T02:26:26.512Z,78.20
2019-03-19T02:28:57.755Z,78.20
2019-03-19T02:31:28.592Z,78.20
2019-03-19T02:33:59.441Z,78.20
2019-03-19T02:36:30.275Z,78.10
2019-03-19T02:39:01.154Z,78.20
2019-03-19T02:41:33.193Z,78.30
2019-03-19T02:44:04.034Z,78.20
2019-03-19T02:46:34.850Z,78.40
2019-03-19T02:49:05.805Z,78.40
2019-03-19T02:51:37.653Z,78.30
2019-03-19T02:54:08.512Z,78.00
2019-03-19T02:56:39.339Z,78.20
2019-03-19T02:59:10.189Z,78.80
2019-03-19T03:01:41.022Z,78.50
2019-03-19T03:04:11.881Z,78.80
2019-03-19T03:06:42.769Z,78.90
2019-03-19T03:09:14.661Z,79.10
2019-03-19T03:11:45.489Z,78.90
2019-03-19T03:14:16.333Z,78.90
2019-03-19T03:16:47.193Z,78.60
2019-03-19T03:19:18.052Z,78.80
2019-03-19T03:21:54.982Z,79.40
2019-03-19T03:24:25.834Z,79.70
2019-03-19T03:26:56.668Z,80.70
2019-03-19T03:29:27.546Z,81.90
2019-03-19T03:31:58.613Z,81.40
2019-03-19T03:34:29.587Z,80.90
2019-03-19T03:37:00.486Z,81.40
2019-03-19T03:39:31.559Z,81.50
2019-03-19T03:42:02.392Z,80.70
2019-03-19T03:44:33.280Z,81.40
2019-03-19T03:47:04.080Z,81.50
2019-03-19T03:49:34.966Z,82.60
2019-03-19T03:52:06.981Z,81.70
2019-03-19T03:54:38.909Z,81.60
2019-03-19T03:57:10.204Z,82.00
2019-03-19T03:59:41.391Z,82.70
2019-03-19T04:02:12.599Z,82.90
2019-03-19T04:04:43.745Z,83.90
2019-03-19T04:07:14.869Z,83.20
2019-03-19T04:09:46.056Z,83.30
2019-03-19T04:12:17.383Z,83.20
2019-03-19T04:14:49.036Z,83.60
2019-03-19T04:17:19.874Z,83.40
2019-03-19T04:19:50.750Z,83.20
2019-03-19T04:22:21.628Z,82.70
2019-03-19T04:24:52.584Z,83.00
2019-03-19T04:27:23.524Z,83.00
2019-03-19T04:29:55.458Z,83.20
2019-03-19T04:32:26.343Z,83.70
2019-03-19T04:34:57.257Z,83.70
2019-03-19T04:37:28.158Z,83.60
2019-03-19T04:39:59.022Z,83.50
2019-03-19T04:42:29.869Z,83.50
2019-03-19T04:45:00.687Z,84.00
2019-03-19T04:47:31.538Z,83.90
2019-03-19T04:50:02.398Z,83.90
2019-03-19T04:52:33.217Z,84.00
2019-03-19T04:55:04.184Z,84.20
2019-03-19T04:57:35.032Z,84.40
2019-03-19T05:00:06.362Z,84.20
2019-03-19T05:02:37.397Z,84.00
2019-03-19T05:05:09.084Z,83.90
2019-03-19T05:07:39.908Z,84.00
2019-03-19T05:10:12.388Z,84.20
2019-03-19T05:12:44.794Z,84.50
2019-03-19T05:15:15.845Z,84.40
2019-03-19T05:17:46.681Z,84.30
2019-03-19T05:20:17.536Z,84.20
2019-03-19T05:22:48.374Z,83.90
2019-03-19T05:25:19.600Z,83.80
2019-03-19T05:27:50.863Z,83.70
2019-03-19T05:30:22.055Z,83.40
2019-03-19T05:32:53.345Z,83.00
2019-03-19T05:35:24.502Z,82.70
2019-03-19T05:37:57.065Z,82.30
2019-03-19T05:40:28.364Z,81.70
2019-03-19T05:42:59.571Z,81.10
2019-03-19T05:45:30.468Z,80.70
2019-03-19T05:48:01.392Z,80.20
2019-03-19T05:50:32.292Z,80.10
2019-03-19T05:53:03.490Z,80.20
2019-03-19T05:55:34.533Z,80.00
2019-03-19T05:58:05.868Z,80.30
2019-03-19T06:00:37.029Z,80.70
2019-03-19T06:03:07.924Z,81.00
2019-03-19T06:05:38.788Z,81.00
2019-03-19T06:08:09.850Z,81.10
2019-03-19T06:10:40.999Z,81.80
2019-03-19T06:13:11.972Z,83.00
2019-03-19T06:15:42.825Z,86.10
2019-03-19T06:18:14.058Z,86.50
2019-03-19T06:20:45.062Z,86.50
2019-03-19T06:23:16.183Z,84.80
2019-03-19T06:25:47.355Z,84.80
2019-03-19T06:28:18.501Z,84.40
2019-03-19T06:30:50.726Z,84.80
2019-03-19T06:33:21.888Z,84.10
2019-03-19T06:35:53.062Z,80.00
2019-03-19T06:38:24.410Z,73.70
2019-03-19T06:40:55.216Z,69.40
2019-03-19T06:43:26.016Z,69.50
2019-03-19T06:45:56.834Z,69.80
2019-03-19T06:48:27.638Z,70.20
2019-03-19T06:50:58.901Z,70.90
2019-03-19T06:53:30.045Z,71.10
2019-03-19T06:56:01.350Z,71.90
2019-03-19T06:58:32.195Z,71.80
2019-03-19T07:01:03.016Z,72.00
2019-03-19T07:03:33.834Z,72.70
2019-03-19T07:06:04.764Z,72.60
2019-03-19T07:08:35.593Z,72.90
2019-03-19T07:11:06.416Z,73.90
2019-03-19T07:13:37.362Z,74.20
2019-03-19T07:16:08.714Z,75.10
2019-03-19T07:18:39.925Z,75.20
2019-03-19T07:21:10.800Z,74.10
2019-03-19T07:23:41.605Z,75.40
2019-03-19T07:26:12.422Z,74.80
2019-03-19T07:28:43.399Z,74.70
2019-03-19T07:31:14.545Z,75.50
2019-03-19T07:33:45.381Z,74.50
2019-03-19T07:36:16.439Z,73.70
2019-03-19T07:38:48.325Z,74.30
2019-03-19T07:41:19.197Z,74.20
2019-03-19T07:43:50.273Z,74.00
2019-03-19T07:46:21.120Z,74.00
2019-03-19T07:48:52.021Z,74.50
2019-03-19T07:51:22.900Z,74.20
2019-03-19T07:53:53.817Z,74.80
2019-03-19T07:56:24.585Z,74.80
2019-03-19T07:58:55.396Z,75.00
2019-03-19T08:01:26.458Z,76.00
2019-03-19T08:03:57.478Z,76.10
2019-03-19T08:06:28.697Z,76.20
2019-03-19T08:08:59.792Z,76.40
2019-03-19T08:11:30.624Z,76.00
2019-03-19T08:14:01.425Z,76.60
2019-03-19T08:16:32.249Z,75.80
2019-03-19T08:19:03.488Z,74.60
2019-03-19T08:21:34.324Z,73.30
2019-03-19T08:24:05.126Z,71.30
2019-03-19T08:26:35.945Z,69.50
2019-03-19T08:29:07.002Z,70.70
2019-03-19T08:31:38.246Z,69.50
2019-03-19T08:34:09.414Z,68.30
2019-03-19T08:36:40.706Z,67.60
2019-03-19T08:39:11.904Z,66.70
2019-03-19T08:41:42.806Z,65.70
2019-03-19T08:44:13.960Z,65.80
2019-03-19T08:46:45.112Z,66.80
2019-03-19T08:49:15.922Z,67.00
2019-03-19T08:51:47.000Z,66.60
2019-03-19T08:54:18.277Z,66.70
2019-03-19T08:56:49.444Z,67.20
2019-03-19T08:59:20.554Z,67.70
2019-03-19T09:01:51.365Z,67.10
2019-03-19T09:04:22.168Z,67.60
2019-03-19T09:06:55.149Z,67.50
2019-03-19T09:09:26.249Z,68.50
2019-03-19T09:11:57.480Z,68.60
2019-03-19T09:14:28.316Z,68.70
2019-03-19T09:16:59.153Z,69.20
2019-03-19T09:19:29.981Z,69.00
2019-03-19T09:22:00.768Z,70.10
2019-03-19T09:24:31.878Z,69.90
2019-03-19T09:27:03.030Z,68.70
2019-03-19T09:29:33.863Z,68.50
2019-03-19T09:32:04.681Z,68.80
2019-03-19T09:34:35.468Z,67.70
2019-03-19T09:37:06.406Z,66.50
2019-03-19T09:39:37.224Z,64.90
2019-03-19T09:42:08.059Z,65.40
2019-03-19T09:44:38.885Z,62.10
2019-03-19T09:47:09.717Z,62.40
2019-03-19T09:49:40.860Z,61.90
2019-03-19T09:52:11.716Z,64.80
2019-03-19T09:54:42.758Z,63.90
2019-03-19T09:57:13.959Z,61.00
2019-03-19T09:59:45.243Z,62.20
2019-03-19T10:02:16.087Z,63.30
2019-03-19T10:04:48.252Z,62.50
2019-03-19T10:07:19.110Z,62.30
2019-03-19T10:09:49.958Z,61.60
2019-03-19T10:12:20.785Z,58.90
2019-03-19T10:14:52.162Z,61.40
2019-03-19T10:17:23.258Z,61.60
2019-03-19T10:19:54.073Z,61.30
2019-03-19T10:22:24.913Z,57.60
2019-03-19T10:24:55.873Z,59.40
2019-03-19T10:27:26.810Z,60.20
2019-03-19T10:29:57.654Z,57.90
2019-03-19T10:32:28.705Z,58.40
2019-03-19T10:34:59.499Z,57.90
2019-03-19T10:37:30.556Z,58.70
2019-03-19T10:40:01.406Z,58.20
2019-03-19T10:42:32.216Z,59.90
2019-03-19T10:45:03.088Z,58.10
2019-03-19T10:47:34.353Z,57.90
2019-03-19T10:50:07.118Z,59.20
2019-03-19T10:52:37.906Z,59.60
2019-03-19T10:55:08.856Z,59.80
2019-03-19T10:57:39.690Z,59.90
2019-03-19T11:00:14.481Z,60.80
2019-03-19T11:02:47.287Z,61.00
2019-03-19T11:05:18.342Z,57.80
2019-03-19T11:07:49.447Z,59.60
2019-03-19T11:10:20.779Z,60.50
2019-03-19T11:12:51.727Z,61.90
2019-03-19T11:15:22.778Z,60.10
2019-03-19T11:17:53.936Z,62.00
2019-03-19T11:20:24.964Z,61.30
2019-03-19T11:22:56.278Z,60.80
2019-03-19T11:25:27.160Z,63.00
2019-03-19T11:27:58.300Z,62.80
2019-03-19T11:30:29.416Z,63.00
2019-03-19T11:33:01.272Z,62.30
2019-03-19T11:35:32.176Z,63.30
2019-03-19T11:38:04.119Z,62.20
2019-03-19T11:40:35.250Z,63.40
2019-03-19T11:43:06.548Z,62.80
2019-03-19T11:45:37.478Z,63.70
2019-03-19T11:48:08.581Z,63.40
2019-03-19T11:50:39.487Z,62.60
2019-03-19T11:53:10.422Z,63.10
2019-03-19T11:55:41.329Z,63.30
2019-03-19T11:58:12.449Z,63.20
2019-03-19T12:00:45.995Z,63.90
2019-03-19T12:03:17.305Z,64.40
2019-03-19T12:05:48.585Z,64.90
2019-03-19T12:08:19.829Z,65.00
2019-03-19T12:10:50.681Z,64.80
2019-03-19T12:13:21.518Z,64.70
2019-03-19T12:15:52.388Z,64.10
2019-03-19T12:18:23.346Z,64.60
2019-03-19T12:20:54.167Z,64.40
2019-03-19T12:23:25.018Z,64.60
2019-03-19T12:25:55.868Z,65.20
2019-03-19T12:28:26.803Z,66.20
2019-03-19T12:30:57.581Z,66.30
2019-03-19T12:33:28.817Z,66.70
2019-03-19T12:35:59.654Z,67.50
2019-03-19T12:38:30.530Z,67.60
2019-03-19T12:41:01.411Z,67.50
2019-03-19T12:43:32.264Z,68.20
2019-03-19T12:46:03.137Z,68.90
2019-03-19T12:48:33.970Z,68.90
2019-03-19T12:51:04.925Z,69.30
2019-03-19T12:53:35.788Z,70.00
2019-03-19T12:56:06.725Z,70.00
2019-03-19T12:58:37.553Z,69.70
2019-03-19T13:01:08.631Z,69.60
2019-03-19T13:03:39.558Z,69.30
2019-03-19T13:06:10.413Z,69.30
2019-03-19T13:08:42.255Z,69.20
2019-03-19T13:11:13.134Z,69.40
2019-03-19T13:13:44.016Z,69.50
2019-03-19T13:16:15.281Z,70.10
2019-03-19T13:18:46.489Z,70.30
2019-03-19T13:21:17.384Z,70.70
2019-03-19T13:23:48.408Z,70.80
2019-03-19T13:26:19.233Z,71.30
2019-03-19T13:28:50.077Z,71.00
2019-03-19T13:31:20.909Z,71.10
2019-03-19T13:33:51.738Z,71.10
2019-03-19T13:36:22.649Z,71.30
2019-03-19T13:38:53.522Z,71.30
2019-03-19T13:41:24.391Z,72.20
2019-03-19T13:43:55.248Z,72.00
2019-03-19T13:46:26.064Z,71.60
2019-03-19T13:48:56.980Z,71.60
2019-03-19T13:51:28.136Z,71.50
2019-03-19T13:53:58.995Z,71.40
2019-03-19T13:56:29.863Z,71.30
2019-03-19T13:59:00.776Z,71.50
2019-03-19T14:01:31.593Z,71.90
2019-03-19T14:04:02.486Z,72.10
2019-03-19T14:06:33.350Z,72.00
2019-03-19T14:09:05.316Z,72.00
2019-03-19T14:11:36.284Z,72.00
2019-03-19T14:14:07.250Z,72.10
2019-03-19T14:16:38.080Z,72.20
2019-03-19T14:19:09.456Z,72.40
2019-03-19T14:21:40.422Z,72.40
2019-03-19T14:24:11.227Z,72.80
2019-03-19T14:26:42.043Z,73.50
2019-03-19T14:29:12.860Z,73.70
2019-03-19T14:31:43.673Z,73.90
2019-03-19T14:34:14.515Z,73.70
2019-03-19T14:36:45.365Z,73.50
2019-03-19T14:39:16.230Z,73.70
2019-03-19T14:41:47.040Z,73.50
2019-03-19T14:44:18.007Z,73.90
2019-03-19T14:46:48.796Z,74.30
2019-03-19T14:49:19.624Z,74.30
2019-03-19T14:51:50.446Z,75.00
2019-03-19T14:54:21.274Z,75.20
2019-03-19T14:56:52.192Z,75.10
2019-03-19T14:59:23.088Z,75.10
2019-03-19T15:01:53.901Z,74.90
2019-03-19T15:04:24.733Z,75.10
2019-03-19T15:06:55.548Z,75.40
2019-03-19T15:09:26.489Z,75.10
2019-03-19T15:11:57.343Z,74.60
2019-03-19T15:14:28.193Z,74.40
2019-03-19T15:17:05.081Z,74.90
2019-03-19T15:19:34.722Z,74.80
2019-03-19T15:22:05.553Z,74.70
2019-03-19T15:24:36.388Z,75.10
2019-03-19T15:27:07.370Z,75.20
2019-03-19T15:29:38.317Z,75.00
2019-03-19T15:32:09.125Z,75.30
2019-03-19T15:34:39.965Z,74.60
2019-03-19T15:37:10.777Z,75.10
2019-03-19T15:39:41.628Z,75.10
2019-03-19T15:42:12.510Z,75.70
2019-03-19T15:44:43.672Z,75.40
2019-03-19T15:47:14.536Z,75.30
2019-03-19T15:49:45.422Z,75.70
2019-03-19T15:52:18.657Z,75.70
2019-03-19T15:54:49.552Z,75.50
2019-03-19T15:57:20.403Z,75.50
2019-03-19T15:59:51.265Z,75.60
2019-03-19T16:02:22.352Z,75.90
2019-03-19T16:04:53.213Z,75.90
2019-03-19T16:07:24.073Z,76.60
2019-03-19T16:09:54.923Z,76.40
2019-03-19T16:12:25.788Z,76.60
2019-03-19T16:14:56.685Z,77.40
2019-03-19T16:17:27.493Z,77.80
2019-03-19T16:19:58.397Z,78.00
2019-03-19T16:22:29.278Z,78.50
2019-03-19T16:25:00.261Z,78.60
2019-03-19T16:27:31.442Z,78.30
2019-03-19T16:30:02.371Z,78.00
2019-03-19T16:32:33.316Z,77.70
2019-03-19T16:35:04.377Z,78.10
2019-03-19T16:37:35.186Z,78.50
2019-03-19T16:40:07.896Z,78.00
2019-03-19T16:42:38.725Z,77.50
2019-03-19T16:45:10.121Z,78.10
2019-03-19T16:47:40.963Z,77.40
2019-03-19T16:50:13.340Z,77.40
2019-03-19T16:52:44.778Z,76.30
2019-03-19T16:55:15.885Z,76.80
2019-03-19T16:57:47.726Z,77.50
2019-03-19T17:00:19.037Z,76.90
2019-03-19T17:02:50.079Z,77.40
2019-03-19T17:05:21.351Z,76.50
2019-03-19T17:07:52.201Z,77.30
2019-03-19T17:10:23.080Z,77.60
2019-03-19T17:12:53.904Z,77.90
2019-03-19T17:15:24.797Z,78.70
2019-03-19T17:17:55.762Z,78.80
2019-03-19T17:20:26.652Z,78.20
2019-03-19T17:22:57.536Z,77.90
2019-03-19T17:25:28.381Z,78.10
2019-03-19T17:27:59.255Z,78.40
2019-03-19T17:30:30.125Z,78.30
2019-03-19T17:33:01.076Z,77.80
2019-03-19T17:35:31.947Z,77.20
2019-03-19T17:38:02.764Z,77.50
2019-03-19T17:40:41.438Z,77.60
2019-03-19T17:43:07.139Z,77.10
2019-03-19T17:45:38.031Z,77.60
2019-03-19T17:48:16.065Z,77.60
2019-03-19T17:50:41.440Z,77.10
2019-03-19T17:53:12.263Z,77.30
2019-03-19T17:55:43.144Z,77.90
2019-03-19T17:58:13.972Z,77.30
2019-03-19T18:00:47.077Z,77.20
2019-03-19T18:03:17.985Z,78.00
2019-03-19T18:05:48.893Z,77.80
2019-03-19T18:08:19.856Z,77.50
2019-03-19T18:10:50.701Z,78.20
2019-03-19T18:13:21.556Z,78.20
2019-03-19T18:15:52.437Z,77.70
2019-03-19T18:18:23.367Z,78.00
2019-03-19T18:20:54.497Z,77.70
2019-03-19T18:23:25.926Z,77.60
2019-03-19T18:25:56.836Z,77.90
2019-03-19T18:28:27.757Z,78.00
2019-03-19T18:30:59.080Z,78.00
2019-03-19T18:33:29.993Z,77.40
2019-03-19T18:36:00.944Z,78.10
2019-03-19T18:38:31.844Z,78.50
2019-03-19T18:41:02.764Z,78.00
2019-03-19T18:43:33.676Z,77.90
2019-03-19T18:46:04.612Z,77.70
2019-03-19T18:48:35.527Z,78.50
2019-03-19T18:51:06.570Z,78.30
2019-03-19T18:53:37.542Z,77.90
2019-03-19T18:56:09.647Z,76.70
2019-03-19T18:58:40.572Z,78.30
2019-03-19T19:01:11.485Z,81.50
2019-03-19T19:03:42.340Z,82.90
2019-03-19T19:06:13.277Z,83.60
2019-03-19T19:08:44.546Z,83.90
2019-03-19T19:11:15.758Z,83.60
2019-03-19T19:13:46.662Z,84.60
2019-03-19T19:16:17.546Z,91.20
2019-03-19T19:18:48.473Z,92.60
2019-03-19T19:21:19.353Z,91.40
2019-03-19T19:23:50.252Z,91.80
2019-03-19T19:26:22.424Z,89.40
2019-03-19T19:28:53.344Z,91.20
2019-03-19T19:31:24.443Z,90.60
2019-03-19T19:33:55.374Z,92.30
2019-03-19T19:36:26.557Z,90.30
2019-03-19T19:38:57.532Z,89.80
2019-03-19T19:41:28.468Z,88.60
2019-03-19T19:44:00.364Z,85.80
2019-03-19T19:46:31.473Z,88.00
2019-03-19T19:49:02.328Z,89.20
2019-03-19T19:51:33.227Z,85.70
2019-03-19T19:54:04.169Z,87.70
2019-03-19T19:56:35.072Z,88.20
2019-03-19T19:59:06.075Z,85.20
2019-03-19T20:01:37.684Z,83.50
2019-03-19T20:04:08.553Z,85.60
2019-03-19T20:06:39.398Z,86.70
2019-03-19T20:09:10.396Z,86.80
2019-03-19T20:11:41.322Z,84.70
2019-03-19T20:14:12.191Z,82.70
2019-03-19T20:16:43.060Z,81.50
2019-03-19T20:19:13.889Z,84.30
2019-03-19T20:21:44.779Z,84.30
2019-03-19T20:24:15.634Z,85.60
2019-03-19T20:26:46.620Z,82.30
2019-03-19T20:29:18.606Z,82.30
2019-03-19T20:31:59.209Z,80.90
2019-03-19T20:34:48.243Z,80.80
2019-03-19T20:37:28.818Z,83.00
2019-03-19T20:40:09.398Z,79.70
2019-03-19T20:42:44.144Z,81.30
2019-03-19T20:45:16.238Z,81.30
2019-03-19T20:47:55.798Z,80.50
2019-03-19T20:50:31.323Z,80.50
2019-03-19T20:53:03.504Z,79.80
2019-03-19T20:55:39.171Z,79.60
2019-03-19T20:58:10.069Z,79.60
2019-03-19T21:00:41.328Z,80.80
2019-03-19T21:03:15.134Z,81.10
2019-03-19T21:05:50.635Z,81.70
2019-03-19T21:08:23.140Z,79.00
2019-03-19T21:10:54.139Z,80.70
2019-03-19T21:13:26.135Z,79.50
2019-03-19T21:15:57.145Z,81.50
2019-03-19T21:18:28.030Z,80.50
2019-03-19T21:20:59.073Z,79.30
2019-03-19T21:24:00.584Z,79.30
2019-03-19T21:26:30.544Z,79.80
2019-03-19T21:29:25.639Z,79.60
2019-03-19T21:31:56.631Z,79.70
2019-03-19T21:34:28.799Z,79.00
2019-03-19T21:37:24.318Z,79.40
2019-03-19T21:40:02.661Z,78.40
2019-03-19T21:42:38.133Z,78.10
2019-03-19T21:45:15.825Z,79.10
2019-03-19T21:47:47.371Z,80.00
2019-03-19T21:50:23.990Z,79.30
2019-03-19T21:53:06.801Z,77.70
2019-03-19T21:55:38.495Z,77.80
2019-03-19T21:58:12.907Z,78.80
2019-03-19T22:00:48.198Z,78.00
2019-03-19T22:03:21.425Z,78.10
2019-03-19T22:05:56.166Z,78.50
2019-03-19T22:08:38.459Z,78.30
2019-03-19T22:11:10.066Z,75.80
2019-03-19T22:13:41.020Z,78.00
2019-03-19T22:16:12.044Z,76.80
2019-03-19T22:18:45.802Z,77.00
2019-03-19T22:21:17.437Z,77.50
2019-03-19T22:23:48.960Z,77.60
2019-03-19T22:26:20.093Z,79.10
2019-03-19T22:28:56.031Z,78.50
2019-03-19T22:31:28.483Z,78.10
2019-03-19T22:34:13.511Z,77.60
2019-03-19T22:36:36.529Z,76.80
2019-03-19T22:39:11.375Z,77.50
2019-03-19T22:41:42.287Z,74.40
2019-03-19T22:44:16.738Z,75.70
2019-03-19T22:46:48.709Z,76.60
2019-03-19T22:49:21.012Z,76.00
2019-03-19T22:51:52.185Z,75.00
2019-03-19T22:54:23.063Z,75.30
2019-03-19T22:56:55.273Z,76.10
2019-03-19T22:59:26.110Z,75.90
2019-03-19T23:01:58.994Z,74.90
2019-03-19T23:04:31.234Z,76.50
2019-03-19T23:07:02.239Z,76.70
2019-03-19T23:09:33.097Z,75.30
2019-03-19T23:12:04.928Z,75.60
2019-03-19T23:14:36.433Z,75.10
2019-03-19T23:17:07.984Z,76.20
2019-03-19T23:19:38.844Z,76.20
2019-03-19T23:22:09.792Z,73.60
2019-03-19T23:24:40.947Z,75.40
2019-03-19T23:27:12.144Z,74.90
2019-03-19T23:29:43.046Z,75.70
2019-03-19T23:32:13.924Z,73.50
2019-03-19T23:34:45.929Z,75.10
2019-03-19T23:37:17.253Z,75.80
2019-03-19T23:39:48.117Z,74.50
2019-03-19T23:42:18.985Z,74.70
2019-03-19T23:44:49.956Z,75.40
2019-03-19T23:47:21.060Z,75.90
2019-03-19T23:49:51.913Z,74.10
2019-03-19T23:52:22.861Z,75.50
2019-03-19T23:54:53.832Z,74.50
2019-03-19T23:57:24.782Z,73.90
2019-03-19T23:59:55.683Z,74.10
